createdAt,value
2019-04-23T00:01:14.707Z,2.37
2019-04-23T00:03:35.681Z,2.10
2019-04-23T00:06:06.973Z,2.70
2019-04-23T00:08:35.848Z,2.45
2019-04-23T00:10:58.862Z,2.65
2019-04-23T00:13:29.290Z,2.30
2019-04-23T00:16:04.962Z,2.60
2019-04-23T00:18:32.255Z,2.10
2019-04-23T00:20:59.345Z,2.45
2019-04-23T00:23:25.577Z,2.20
2019-04-23T00:26:09.222Z,2.90
2019-04-23T00:28:31.801Z,2.30
2019-04-23T00:36:02.643Z,2.08
2019-04-23T00:38:28.778Z,2.33
2019-04-23T00:40:53.986Z,2.60
2019-04-23T00:48:19.640Z,2.67
2019-04-23T00:50:56.158Z,1.95
2019-04-23T00:53:12.621Z,2.87
2019-04-23T00:55:43.757Z,2.17
2019-04-23T00:58:15.828Z,2.70
2019-04-23T01:00:42.426Z,2.17
2019-04-23T01:03:05.739Z,2.60
2019-04-23T01:05:37.606Z,2.30
2019-04-23T01:08:06.778Z,2.70
2019-04-23T01:10:36.229Z,2.50
2019-04-23T01:13:09.222Z,2.45
2019-04-23T01:15:39.694Z,2.42
2019-04-23T01:20:52.088Z,2.35
2019-04-23T01:22:59.083Z,2.80
2019-04-23T01:25:43.649Z,2.20
2019-04-23T01:28:34.002Z,2.67
2019-04-23T01:31:01.951Z,2.98
2019-04-23T01:33:34.071Z,2.55
2019-04-23T01:38:27.925Z,2.50
2019-04-23T01:40:47.435Z,2.27
2019-04-23T01:43:38.164Z,2.30
2019-04-23T01:45:44.373Z,2.20
2019-04-23T01:48:12.489Z,2.62
2019-04-23T01:50:48.679Z,2.50
2019-04-23T01:53:23.293Z,2.40
2019-04-23T01:55:46.819Z,2.60
2019-04-23T01:58:27.469Z,2.80
2019-04-23T02:00:40.772Z,2.92
2019-04-23T02:03:13.618Z,3.05
2019-04-23T02:05:46.873Z,2.72
2019-04-23T02:08:07.820Z,2.80
2019-04-23T02:10:47.569Z,2.87
2019-04-23T02:13:11.307Z,2.77
2019-04-23T02:15:37.987Z,2.90
2019-04-23T02:18:05.495Z,2.75
2019-04-23T02:20:39.328Z,3.22
2019-04-23T02:28:10.711Z,2.87
2019-04-23T02:35:56.173Z,2.80
2019-04-23T02:38:31.809Z,2.98
2019-04-23T02:43:13.004Z,2.55
2019-04-23T02:45:48.480Z,3.37
2019-04-23T02:48:19.722Z,2.25
2019-04-23T02:50:39.650Z,3.00
2019-04-23T02:53:14.395Z,3.50
2019-04-23T02:58:10.312Z,3.10
2019-04-23T03:00:39.938Z,3.05
2019-04-23T03:03:05.947Z,3.35
2019-04-23T03:10:41.883Z,3.92
2019-04-23T03:13:19.807Z,2.85
2019-04-23T03:23:52.281Z,3.00
2019-04-23T03:26:38.258Z,3.00
2019-04-23T03:28:55.741Z,3.17
2019-04-23T03:36:13.920Z,3.20
2019-04-23T03:43:46.402Z,3.10
2019-04-23T03:48:46.544Z,2.50
2019-04-23T03:51:02.997Z,2.42
2019-04-23T03:58:39.050Z,2.65
2019-04-23T04:01:07.211Z,2.80
2019-04-23T04:04:10.645Z,2.83
2019-04-23T04:11:09.374Z,4.00
2019-04-23T04:28:17.773Z,3.12
2019-04-23T04:30:49.266Z,2.75
2019-04-23T04:33:33.975Z,3.33
2019-04-23T04:35:47.727Z,3.60
2019-04-23T04:40:57.676Z,3.80
2019-04-23T04:46:04.633Z,3.20
2019-04-23T04:48:15.652Z,4.00
2019-04-23T04:50:55.516Z,3.52
2019-04-23T04:53:47.793Z,3.58
2019-04-23T04:55:50.161Z,3.52
2019-04-23T04:58:13.028Z,3.52
2019-04-23T05:06:01.401Z,3.40
2019-04-23T05:08:17.369Z,3.72
2019-04-23T05:15:41.038Z,3.62
2019-04-23T05:23:15.783Z,3.85
2019-04-23T05:25:33.099Z,3.52
2019-04-23T05:28:07.971Z,3.37
2019-04-23T05:30:39.409Z,3.47
2019-04-23T05:33:06.243Z,3.67
2019-04-23T05:35:46.675Z,3.52
2019-04-23T05:40:39.663Z,3.65
2019-04-23T05:42:58.916Z,3.62
2019-04-23T05:45:31.811Z,3.60
2019-04-23T05:47:59.347Z,4.67
2019-04-23T05:50:32.466Z,3.33
2019-04-23T05:52:57.748Z,4.00
2019-04-23T05:55:13.665Z,3.05
2019-04-23T05:57:44.592Z,4.00
2019-04-23T06:00:17.539Z,3.37
2019-04-23T06:02:48.447Z,4.03
2019-04-23T06:07:44.053Z,4.20
2019-04-23T06:10:16.547Z,4.20
2019-04-23T06:12:37.072Z,3.47
2019-04-23T06:15:05.638Z,3.60
2019-04-23T06:17:34.022Z,3.20
2019-04-23T06:22:34.663Z,4.22
2019-04-23T06:25:01.711Z,3.17
2019-04-23T06:27:49.730Z,3.70
2019-04-23T06:29:58.880Z,3.77
2019-04-23T06:32:25.830Z,3.60
2019-04-23T06:34:52.823Z,3.90
2019-04-23T06:37:28.402Z,4.33
2019-04-23T06:39:55.165Z,4.12
2019-04-23T06:42:18.065Z,3.80
2019-04-23T06:44:51.383Z,4.35
2019-04-23T06:47:28.918Z,3.58
2019-04-23T06:49:54.619Z,4.30
2019-04-23T06:52:19.104Z,4.10
2019-04-23T06:54:47.729Z,3.77
2019-04-23T06:59:47.100Z,4.33
2019-04-23T07:02:11.788Z,3.62
2019-04-23T07:04:43.815Z,4.10
2019-04-23T07:07:31.543Z,3.95
2019-04-23T07:09:35.471Z,4.47
2019-04-23T07:12:07.661Z,3.98
2019-04-23T07:14:35.884Z,4.03
2019-04-23T07:16:56.546Z,3.95
2019-04-23T07:19:31.943Z,3.77
2019-04-23T07:22:08.155Z,3.75
2019-04-23T07:24:36.288Z,3.75
2019-04-23T07:26:49.478Z,3.72
2019-04-23T07:29:26.265Z,4.25
2019-04-23T07:31:53.895Z,3.65
2019-04-23T07:34:20.368Z,3.92
2019-04-23T07:37:05.157Z,3.52
2019-04-23T07:39:25.590Z,3.67
2019-04-23T07:44:46.660Z,3.42
2019-04-23T07:47:21.717Z,3.05
2019-04-23T07:50:00.742Z,3.55
2019-04-23T07:54:44.261Z,3.85
2019-04-23T07:57:18.661Z,2.77
2019-04-23T07:59:52.161Z,3.87
2019-04-23T08:02:15.999Z,3.02
2019-04-23T08:05:06.313Z,3.42
2019-04-23T08:07:06.610Z,2.52
2019-04-23T08:09:45.319Z,3.47
2019-04-23T08:12:13.919Z,2.50
2019-04-23T08:14:34.285Z,3.85
2019-04-23T08:16:57.909Z,2.83
2019-04-23T08:19:46.989Z,2.40
2019-04-23T08:22:06.614Z,2.52
2019-04-23T08:27:18.183Z,3.08
2019-04-23T08:29:52.591Z,2.70
2019-04-23T08:32:27.791Z,2.52
2019-04-23T08:34:57.532Z,3.05
2019-04-23T08:37:26.898Z,3.42
2019-04-23T08:47:27.588Z,3.62
2019-04-23T08:50:12.834Z,2.75
2019-04-23T08:52:27.584Z,2.80
2019-04-23T08:55:02.206Z,3.35
2019-04-23T08:57:26.876Z,2.62
2019-04-23T08:59:58.783Z,3.60
2019-04-23T09:10:00.497Z,3.02
2019-04-23T09:12:23.637Z,3.05
2019-04-23T09:14:52.401Z,2.80
2019-04-23T09:17:24.796Z,3.35
2019-04-23T09:20:07.045Z,3.22
2019-04-23T09:22:25.236Z,2.98
2019-04-23T09:24:50.676Z,3.92
2019-04-23T09:29:47.217Z,3.95
2019-04-23T09:32:26.895Z,3.65
2019-04-23T09:35:08.582Z,3.98
2019-04-23T09:37:40.490Z,2.77
2019-04-23T09:40:16.746Z,4.10
2019-04-23T09:42:46.310Z,3.05
2019-04-23T09:45:34.170Z,3.40
2019-04-23T09:50:33.523Z,3.87
2019-04-23T09:53:02.856Z,2.98
2019-04-23T09:55:32.150Z,3.80
2019-04-23T09:57:59.752Z,2.67
2019-04-23T10:00:30.796Z,2.80
2019-04-23T10:02:41.445Z,2.75
2019-04-23T10:05:10.364Z,3.52
2019-04-23T10:07:35.994Z,3.90
2019-04-23T10:09:51.587Z,4.12
2019-04-23T10:12:20.084Z,3.40
2019-04-23T10:14:59.220Z,2.72
2019-04-23T10:17:16.055Z,3.67
2019-04-23T10:19:42.812Z,4.03
2019-04-23T10:22:09.401Z,4.28
2019-04-23T10:24:37.009Z,3.20
2019-04-23T10:27:04.323Z,3.90
2019-04-23T10:29:34.209Z,4.40
2019-04-23T10:32:02.171Z,3.10
2019-04-23T10:34:42.241Z,3.75
2019-04-23T10:36:57.809Z,3.27
2019-04-23T10:39:30.425Z,4.10
2019-04-23T10:41:54.870Z,4.53
2019-04-23T10:44:26.828Z,3.25
2019-04-23T10:47:43.577Z,3.12
2019-04-23T10:50:20.525Z,3.65
2019-04-23T10:52:36.217Z,4.03
2019-04-23T10:55:06.505Z,3.90
2019-04-23T10:57:33.027Z,4.28
2019-04-23T10:59:59.316Z,3.87
2019-04-23T11:07:42.257Z,3.00
2019-04-23T11:10:05.599Z,2.72
2019-04-23T11:22:46.487Z,3.10
2019-04-23T11:25:20.504Z,3.35
2019-04-23T11:27:44.022Z,3.30
2019-04-23T11:30:19.169Z,3.17
2019-04-23T11:37:47.942Z,3.42
2019-04-23T11:40:21.124Z,3.27
2019-04-23T11:42:39.347Z,4.22
2019-04-23T11:45:06.858Z,3.50
2019-04-23T11:52:39.547Z,2.83
2019-04-23T11:55:00.656Z,3.50
2019-04-23T11:59:52.859Z,2.75
2019-04-23T12:02:23.399Z,2.85
2019-04-23T12:05:17.193Z,2.67
2019-04-23T12:07:34.374Z,3.10
2019-04-23T12:10:09.144Z,2.95
2019-04-23T12:12:32.814Z,3.90
2019-04-23T12:15:03.658Z,3.37
2019-04-23T12:20:25.668Z,4.47
2019-04-23T12:22:57.571Z,4.00
2019-04-23T12:25:31.262Z,3.50
2019-04-23T12:27:39.036Z,3.45
2019-04-23T12:35:16.790Z,4.20
2019-04-23T12:37:41.045Z,4.45
2019-04-23T12:40:15.545Z,3.67
2019-04-23T12:45:18.090Z,4.40
2019-04-23T12:55:13.258Z,4.75
2019-04-23T12:57:35.669Z,4.00
2019-04-23T13:00:10.051Z,4.80
2019-04-23T13:02:39.818Z,3.85
2019-04-23T13:05:00.498Z,4.42
2019-04-23T13:07:34.915Z,4.22
2019-04-23T13:10:15.398Z,4.22
2019-04-23T13:12:38.114Z,4.70
2019-04-23T13:15:03.639Z,4.42
2019-04-23T13:20:15.234Z,4.10
2019-04-23T13:22:25.659Z,4.00
2019-04-23T13:27:38.421Z,4.58
2019-04-23T13:30:06.789Z,4.22
2019-04-23T13:32:27.833Z,4.45
2019-04-23T13:37:31.589Z,4.40
2019-04-23T13:39:55.453Z,4.83
2019-04-23T13:42:33.377Z,3.92
2019-04-23T13:47:30.447Z,4.12
2019-04-23T13:49:51.102Z,4.20
2019-04-23T13:52:44.574Z,3.60
2019-04-23T13:59:44.558Z,4.30
2019-04-23T14:02:17.062Z,4.87
2019-04-23T14:05:06.372Z,4.30
2019-04-23T14:07:25.188Z,4.22
2019-04-23T14:09:54.124Z,4.87
2019-04-23T14:12:28.100Z,4.30
2019-04-23T14:19:45.653Z,4.25
2019-04-23T14:22:31.386Z,3.67
2019-04-23T14:24:53.154Z,4.90
2019-04-23T14:27:14.798Z,3.92
2019-04-23T14:29:48.767Z,3.77
2019-04-23T14:32:15.685Z,4.05
2019-04-23T14:34:52.147Z,4.58
2019-04-23T14:37:17.675Z,3.55
2019-04-23T14:39:32.347Z,3.95
2019-04-23T14:42:21.425Z,3.50
2019-04-23T14:44:36.590Z,3.67
2019-04-23T14:47:07.556Z,4.28
2019-04-23T14:49:46.948Z,3.65
2019-04-23T14:52:14.232Z,3.72
2019-04-23T14:55:18.036Z,3.95
2019-04-23T14:59:29.015Z,4.00
2019-04-23T15:02:05.202Z,4.60
2019-04-23T15:04:33.705Z,3.75
2019-04-23T15:07:10.835Z,4.10
2019-04-23T15:09:36.168Z,3.98
2019-04-23T15:12:20.817Z,4.35
2019-04-23T15:14:37.516Z,3.95
2019-04-23T15:19:40.258Z,4.10
2019-04-23T15:29:21.708Z,4.35
2019-04-23T15:32:05.837Z,4.33
2019-04-23T15:34:26.645Z,4.50
2019-04-23T15:37:13.939Z,4.40
2019-04-23T15:44:16.754Z,3.62
2019-04-23T15:46:57.061Z,3.85
2019-04-23T15:51:52.223Z,4.10
2019-04-23T15:54:22.626Z,3.85
2019-04-23T15:56:50.325Z,4.05
2019-04-23T15:59:25.907Z,3.90
2019-04-23T16:01:37.099Z,4.03
2019-04-23T16:03:47.242Z,3.62
2019-04-23T16:06:17.133Z,3.62
2019-04-23T16:11:47.036Z,4.85
2019-04-23T16:16:38.977Z,2.92
2019-04-23T16:19:24.749Z,3.02
2019-04-23T16:22:03.712Z,3.25
2019-04-23T16:24:17.576Z,3.30
2019-04-23T16:31:47.777Z,3.77
2019-04-23T16:34:19.157Z,3.37
2019-04-23T16:36:38.689Z,3.80
2019-04-23T16:39:13.378Z,3.12
2019-04-23T16:41:43.762Z,3.10
2019-04-23T16:44:16.913Z,3.83
2019-04-23T16:46:31.371Z,3.80
2019-04-23T16:51:32.225Z,4.30
2019-04-23T16:54:01.427Z,3.98
2019-04-23T16:56:41.958Z,4.08
2019-04-23T17:01:22.817Z,3.77
2019-04-23T17:03:56.441Z,4.15
2019-04-23T17:06:23.548Z,4.30
2019-04-23T17:08:57.884Z,4.72
2019-04-23T17:11:20.448Z,3.52
2019-04-23T17:18:52.228Z,4.08
2019-04-23T17:21:11.843Z,4.17
2019-04-23T17:23:45.924Z,3.95
2019-04-23T17:26:17.182Z,4.03
2019-04-23T17:28:36.070Z,3.60
2019-04-23T17:31:26.297Z,4.20
2019-04-23T17:38:49.439Z,2.83
2019-04-23T17:41:41.805Z,2.85
2019-04-23T17:46:37.573Z,2.80
2019-04-23T17:49:04.313Z,3.95
2019-04-23T17:51:48.807Z,2.95
2019-04-23T17:54:17.883Z,3.50
2019-04-23T17:56:59.553Z,3.62
2019-04-23T17:59:04.273Z,2.98
2019-04-23T18:01:27.878Z,2.98
2019-04-23T18:04:03.099Z,2.75
2019-04-23T18:06:41.129Z,3.00
2019-04-23T18:09:05.942Z,2.70
2019-04-23T18:11:23.286Z,3.08
2019-04-23T18:14:00.511Z,2.92
2019-04-23T18:16:35.555Z,3.70
2019-04-23T18:19:00.841Z,2.95
2019-04-23T18:21:42.154Z,3.40
2019-04-23T18:24:18.809Z,2.75
2019-04-23T18:26:56.888Z,2.52
2019-04-23T18:29:31.616Z,3.12
2019-04-23T18:32:17.028Z,3.35
2019-04-23T18:35:03.644Z,3.20
2019-04-23T18:37:12.132Z,2.77
2019-04-23T18:39:41.451Z,2.62
2019-04-23T18:44:43.626Z,2.20
2019-04-23T18:47:10.732Z,2.90
2019-04-23T18:49:35.479Z,3.00
2019-04-23T18:51:58.144Z,2.60
2019-04-23T18:54:28.113Z,2.70
2019-04-23T18:59:37.264Z,2.83
2019-04-23T19:02:20.526Z,2.50
2019-04-23T19:13:07.099Z,2.92
2019-04-23T19:15:38.131Z,3.12
2019-04-23T19:23:12.863Z,2.58
2019-04-23T19:25:33.768Z,3.20
2019-04-23T19:28:09.144Z,2.47
2019-04-23T19:31:00.414Z,2.45
2019-04-23T19:33:32.892Z,2.72
2019-04-23T19:36:05.474Z,2.98
2019-04-23T19:38:21.497Z,2.83
2019-04-23T19:40:53.491Z,2.85
2019-04-23T19:43:19.490Z,2.92
2019-04-23T19:45:51.878Z,2.58
2019-04-23T19:48:16.247Z,2.80
2019-04-23T19:50:51.967Z,2.58
2019-04-23T19:55:57.122Z,3.20
2019-04-23T19:58:14.306Z,2.80
2019-04-23T20:01:01.667Z,2.92
2019-04-23T20:03:16.885Z,2.92
2019-04-23T20:05:40.824Z,3.25
2019-04-23T20:10:39.576Z,2.85
2019-04-23T20:13:02.572Z,2.85
2019-04-23T20:15:44.345Z,3.00
2019-04-23T20:18:22.301Z,2.50
2019-04-23T20:20:42.153Z,3.00
2019-04-23T20:23:03.745Z,3.30
2019-04-23T20:26:09.973Z,3.25
2019-04-23T20:28:17.307Z,3.40
2019-04-23T20:35:48.103Z,2.92
2019-04-23T20:38:27.621Z,3.05
2019-04-23T20:40:51.453Z,2.95
2019-04-23T20:43:09.821Z,2.65
2019-04-23T20:48:06.963Z,3.27
2019-04-23T20:50:34.542Z,2.72
2019-04-23T20:52:59.979Z,2.77
2019-04-23T20:55:47.370Z,3.30
2019-04-23T20:58:09.728Z,2.80
2019-04-23T21:00:57.160Z,2.67
2019-04-23T21:05:37.286Z,3.10
2019-04-23T21:08:44.223Z,3.08
2019-04-23T21:10:51.026Z,2.70
2019-04-23T21:15:40.603Z,3.27
2019-04-23T21:23:09.510Z,3.27
2019-04-23T21:25:42.278Z,2.75
2019-04-23T21:36:12.593Z,2.60
2019-04-23T21:41:13.813Z,3.08
2019-04-23T21:44:05.532Z,2.67
2019-04-23T21:46:14.867Z,2.77
2019-04-23T21:53:42.673Z,3.00
2019-04-23T21:56:08.978Z,2.45
2019-04-23T21:58:49.561Z,2.95
2019-04-23T22:01:27.892Z,2.85
2019-04-23T22:06:25.519Z,2.62
2019-04-23T22:08:52.966Z,3.80
2019-04-23T22:11:37.594Z,3.30
2019-04-23T22:13:58.177Z,2.70
2019-04-23T22:16:17.008Z,2.80
2019-04-23T22:18:46.066Z,2.70
2019-04-23T22:23:50.540Z,2.83
2019-04-23T22:26:16.308Z,2.90
2019-04-23T22:28:39.523Z,3.10
2019-04-23T22:31:12.273Z,2.45
2019-04-23T22:33:37.271Z,3.30
2019-04-23T22:36:01.671Z,3.00
2019-04-23T22:38:30.545Z,3.35
2019-04-23T22:46:00.054Z,3.52
2019-04-23T22:48:25.456Z,3.02
2019-04-23T22:51:16.307Z,2.87
2019-04-23T22:53:18.923Z,3.00
2019-04-23T22:58:11.480Z,3.10
2019-04-23T23:01:03.938Z,3.02
2019-04-23T23:03:29.264Z,3.00
2019-04-23T23:08:22.449Z,2.77
2019-04-23T23:10:58.469Z,2.75
2019-04-23T23:15:53.229Z,2.92
2019-04-23T23:18:18.157Z,2.90
2019-04-23T23:20:52.726Z,3.00
2019-04-23T23:23:19.394Z,3.10
2019-04-23T23:25:49.148Z,2.95
2019-04-23T23:33:17.271Z,2.90
2019-04-23T23:38:18.391Z,2.42
2019-04-23T23:40:47.230Z,2.90
2019-04-23T23:43:23.109Z,3.02
2019-04-23T23:53:11.677Z,3.00
2019-04-23T23:55:38.449Z,2.47
2019-04-23T23:58:14.896Z,2.62
